الصفحة الرئيسية
METAR-TAF:

METAR-TAF

مطار :

مطار الدوحة الدولي

الدوحة, قطر

دائرة عرض: 25-15-40N, خط طول: 051-33-54E, ارتفاع: 11 متر

مراقبة الطقس الحالي

تاريخ ووقت الإصدار 38 دقيقة قبل الساعة 09:30UTC
ريح 6 عقدةمن اتجاهات متغيرة
درجة الحرارة 46°درجة مئوية
الرطوبة 9%
ضغط 999 hPa
الرؤية 10 كم أو أكثر
الغيوم لا تقل 1500 م ولا وجود لمزنة ركامية السحاب الأسود

METAR: OTBD 140930Z AUTO VRB06KT CAVOK 46/06 Q0999 NOSIG

زمن: 13:08 (10:08 UTC)

توقعات

تاريخ ووقت الإصدار 29ساعات و 2 دقيقة قبل الساعة 05:06UTC
التوقعات صالحة من12 الساعة 06 UTC إلى 13 الساعة 12 UTC
ريح 9 عقدة من الجنوب الغربي
الرؤية 10 كم أو أكثر
الغيوم لا تقل 1500 م ولا وجود لمزنة ركامية السحاب الأسود
مؤقت
من 12 الساعة 06 UTC إلى 12 الساعة 11 UTC
ريح 9 عقدة من الجنوب/الجنوب الشرقي
مؤقت
من 12 الساعة 12 UTC إلى 12 الساعة 16 UTC
ريح 9 عقدة من الشمال الشرقي
أصبح
من 12 الساعة 17 UTC إلى 12 الساعة 19 UTC
ريح 9 عقدة من الشمال/الشمال الغربي

TAF: OTBD 120506Z 1206/1312 22009KT CAVOK TEMPO 1206/1211 15009KT TEMPO 1212/1216 04009KT BECMG 1217/1219 33009KT

أرصاد الطقس والتوقعات من أكثر من 4000 مطار (تقارير الطقس للمطار METAR والتنبؤ بالطقس بالمطارTAF).

المحطات المتاحة هي النقط الصفراء والحمراء على الخريطة.

حرك المؤشر فوق النقطة لمعرفة اسم المحطة.

ثم انقر لمعرفة أرصاد وتوقعات الطقس.

لتغيير الخارطة: اضغط على الأزرار الخضراء مع رمز الصليب الأسود للتكبير. على الزر الأخضر مع شرطة للتصغير، أو على الأسهم الخضراء للخرائط المجاورة.


METAR-TAF: